createdAt,value
2022-08-17T00:02:26.467Z,28.35
2022-08-17T00:04:54.573Z,28.15
2022-08-17T00:07:21.592Z,28.65
2022-08-17T00:09:48.369Z,28.52
2022-08-17T00:12:42.217Z,28.15
2022-08-17T00:15:01.685Z,27.17
2022-08-17T00:17:28.483Z,28.67
2022-08-17T00:19:55.066Z,28.48
2022-08-17T00:22:31.580Z,28.20
2022-08-17T00:25:05.391Z,28.63
2022-08-17T00:27:32.003Z,28.80
2022-08-17T00:29:58.639Z,29.33
2022-08-17T00:33:12.525Z,29.08
2022-08-17T00:35:14.691Z,30.23
2022-08-17T00:37:41.610Z,30.63
2022-08-17T00:40:11.361Z,30.85
2022-08-17T00:42:39.360Z,31.58
2022-08-17T00:45:08.396Z,32.35
2022-08-17T00:47:35.267Z,33.47
2022-08-17T00:50:02.289Z,33.40
2022-08-17T00:52:35.539Z,34.60
2022-08-17T00:55:02.804Z,34.47
2022-08-17T00:57:32.926Z,34.55
2022-08-17T01:00:04.363Z,36.78
2022-08-17T01:02:42.549Z,33.92
2022-08-17T01:05:18.929Z,35.45
2022-08-17T01:07:47.896Z,34.17
2022-08-17T01:10:59.224Z,34.40
2022-08-17T01:13:04.102Z,34.45
2022-08-17T01:15:35.471Z,33.47
2022-08-17T01:18:03.076Z,33.70
2022-08-17T01:20:29.716Z,33.63
2022-08-17T01:22:56.315Z,35.30
2022-08-17T01:25:23.210Z,36.45
2022-08-17T01:27:50.027Z,37.83
2022-08-17T01:30:58.970Z,37.35
2022-08-17T01:33:04.704Z,38.53
2022-08-17T01:35:31.609Z,40.55
2022-08-17T01:37:58.220Z,40.72
2022-08-17T01:40:39.067Z,38.97
2022-08-17T01:43:27.127Z,37.53
2022-08-17T01:46:02.813Z,40.60
2022-08-17T01:48:38.031Z,41.90
2022-08-17T01:51:07.233Z,38.10
2022-08-17T01:53:42.418Z,41.10
2022-08-17T01:58:38.682Z,39.00
2022-08-17T02:01:06.775Z,40.67
2022-08-17T02:03:35.414Z,39.63
2022-08-17T02:06:02.734Z,39.90
2022-08-17T02:08:37.213Z,38.47
2022-08-17T02:11:11.674Z,38.33
2022-08-17T02:13:39.128Z,37.58
2022-08-17T02:16:06.413Z,37.15
2022-08-17T02:18:33.139Z,38.10
2022-08-17T02:21:00.114Z,36.95
2022-08-17T02:23:29.380Z,37.17
2022-08-17T02:25:59.408Z,37.00
2022-08-17T02:28:26.706Z,36.45
2022-08-17T02:31:01.383Z,37.47
2022-08-17T02:33:41.883Z,37.95
2022-08-17T02:36:12.900Z,36.42
2022-08-17T02:38:40.697Z,38.50
2022-08-17T02:41:08.540Z,38.60
2022-08-17T02:43:35.516Z,37.30
2022-08-17T02:46:02.118Z,38.13
2022-08-17T02:48:31.694Z,39.65
2022-08-17T02:50:59.461Z,38.58
2022-08-17T02:53:26.173Z,39.95
2022-08-17T02:55:53.378Z,41.35
2022-08-17T02:58:35.041Z,40.63
2022-08-17T03:01:04.475Z,39.75
2022-08-17T03:03:31.053Z,40.85
2022-08-17T03:05:57.946Z,41.50
2022-08-17T03:08:25.593Z,42.40
2022-08-17T03:10:52.714Z,42.58
2022-08-17T03:13:20.163Z,41.55
2022-08-17T03:15:47.606Z,40.75
2022-08-17T03:18:24.954Z,40.03
2022-08-17T03:20:59.832Z,39.55
2022-08-17T03:23:27.792Z,40.20
2022-08-17T03:25:56.509Z,41.33
2022-08-17T03:28:23.976Z,38.80
2022-08-17T03:30:51.509Z,41.50
2022-08-17T03:33:19.401Z,41.30
2022-08-17T03:35:46.161Z,41.97
2022-08-17T03:38:15.047Z,43.38
2022-08-17T03:40:56.437Z,41.97
2022-08-17T03:43:27.796Z,42.83
2022-08-17T03:46:28.582Z,40.85
2022-08-17T03:49:18.226Z,39.90
2022-08-17T03:52:03.292Z,40.63
2022-08-17T03:54:48.517Z,36.83
2022-08-17T03:57:15.129Z,37.30
2022-08-17T03:59:41.732Z,37.90
2022-08-17T04:02:13.072Z,37.47
2022-08-17T04:04:40.286Z,35.50
2022-08-17T04:07:07.541Z,37.53
2022-08-17T04:09:34.582Z,35.90
2022-08-17T04:12:04.895Z,36.17
2022-08-17T04:14:52.076Z,36.17
2022-08-17T04:17:21.726Z,34.20
2022-08-17T04:19:48.320Z,34.72
2022-08-17T04:22:30.712Z,33.70
2022-08-17T04:25:01.001Z,33.30
2022-08-17T04:27:27.569Z,33.55
2022-08-17T04:29:55.284Z,31.80
2022-08-17T04:33:03.387Z,33.17
2022-08-17T04:35:10.064Z,32.05
2022-08-17T04:37:36.690Z,31.88
2022-08-17T04:40:22.563Z,30.42
2022-08-17T04:43:18.597Z,29.88
2022-08-17T04:45:55.544Z,30.13
2022-08-17T04:48:35.611Z,29.80
2022-08-17T04:51:12.403Z,30.13
2022-08-17T04:53:41.798Z,29.38
2022-08-17T04:56:11.819Z,29.58
2022-08-17T04:58:49.939Z,29.52
2022-08-17T05:01:23.102Z,27.40
2022-08-17T05:03:51.136Z,26.88
2022-08-17T05:06:17.742Z,25.50
2022-08-17T05:08:44.314Z,23.48
2022-08-17T05:11:11.015Z,22.52
2022-08-17T05:13:37.571Z,22.20
2022-08-17T05:16:05.378Z,20.40
2022-08-17T05:18:32.896Z,19.80
2022-08-17T05:20:59.523Z,18.42
2022-08-17T05:23:41.956Z,18.40
2022-08-17T05:26:25.645Z,17.65
2022-08-17T05:28:57.225Z,16.80
2022-08-17T05:31:26.898Z,17.23
2022-08-17T05:33:53.758Z,16.13
2022-08-17T05:36:37.946Z,15.73
2022-08-17T05:39:07.283Z,15.95
2022-08-17T05:41:33.875Z,14.70
2022-08-17T05:44:00.564Z,14.63
2022-08-17T05:46:39.961Z,14.98
2022-08-17T05:49:08.541Z,15.07
2022-08-17T05:51:53.795Z,13.90
2022-08-17T05:57:06.086Z,13.88
2022-08-17T05:59:55.103Z,13.50
2022-08-17T06:02:35.838Z,14.32
2022-08-17T06:05:17.453Z,13.60
2022-08-17T06:08:00.128Z,12.50
2022-08-17T06:10:47.858Z,13.52
2022-08-17T06:13:50.984Z,12.02
2022-08-17T06:16:33.270Z,12.90
2022-08-17T06:19:06.138Z,12.73
2022-08-17T06:21:39.432Z,13.65
2022-08-17T06:24:27.567Z,12.88
2022-08-17T06:27:01.664Z,14.20
2022-08-17T06:29:37.388Z,15.93
2022-08-17T06:32:09.904Z,15.20
2022-08-17T06:34:39.832Z,14.82
2022-08-17T06:37:36.332Z,14.27
2022-08-17T06:40:09.040Z,15.20
2022-08-17T06:43:04.010Z,16.02
2022-08-17T06:46:04.117Z,15.43
2022-08-17T06:48:42.711Z,16.63
2022-08-17T06:51:25.983Z,15.93
2022-08-17T06:54:19.575Z,15.07
2022-08-17T06:57:07.309Z,14.70
2022-08-17T06:59:56.048Z,14.55
2022-08-17T07:02:52.415Z,14.32
2022-08-17T07:05:21.046Z,13.40
2022-08-17T07:08:17.069Z,13.88
2022-08-17T07:10:48.246Z,13.68
2022-08-17T07:13:38.305Z,13.05
2022-08-17T07:16:15.441Z,13.25
2022-08-17T07:18:43.469Z,13.32
2022-08-17T07:21:30.755Z,11.82
2022-08-17T07:24:29.209Z,11.88
2022-08-17T07:27:07.598Z,10.85
2022-08-17T07:29:39.968Z,11.50
2022-08-17T07:32:08.555Z,11.18
2022-08-17T07:35:15.430Z,11.15
2022-08-17T07:38:25.240Z,10.85
2022-08-17T07:41:02.118Z,10.68
2022-08-17T07:43:48.572Z,9.60
2022-08-17T07:46:44.401Z,9.63
2022-08-17T07:49:11.141Z,9.75
2022-08-17T07:51:40.786Z,9.88
2022-08-17T07:54:16.613Z,9.70
2022-08-17T07:56:48.006Z,8.93
2022-08-17T07:59:25.548Z,9.30
2022-08-17T08:01:56.796Z,9.10
2022-08-17T08:05:01.404Z,8.52
2022-08-17T08:07:50.425Z,9.00
2022-08-17T08:10:35.574Z,9.80
2022-08-17T08:13:25.082Z,9.55
2022-08-17T08:16:10.837Z,10.05
2022-08-17T08:18:55.270Z,10.38
2022-08-17T08:21:38.109Z,9.88
2022-08-17T08:24:10.903Z,9.85
2022-08-17T08:26:46.412Z,9.20
2022-08-17T08:29:28.335Z,8.73
2022-08-17T08:32:17.414Z,9.15
2022-08-17T08:35:03.652Z,8.90
2022-08-17T08:37:56.251Z,9.07
2022-08-17T08:40:32.008Z,8.98
2022-08-17T08:43:36.355Z,8.27
2022-08-17T08:46:08.765Z,8.95
2022-08-17T08:48:57.944Z,8.70
2022-08-17T08:51:46.470Z,7.93
2022-08-17T08:54:35.229Z,9.15
2022-08-17T08:57:26.691Z,8.68
2022-08-17T09:00:16.586Z,8.43
2022-08-17T09:03:04.780Z,8.95
2022-08-17T09:05:31.279Z,8.93
2022-08-17T09:08:11.117Z,9.15
2022-08-17T09:10:48.025Z,8.55
2022-08-17T09:13:40.926Z,8.18
2022-08-17T09:16:07.464Z,8.15
2022-08-17T09:19:00.555Z,8.48
2022-08-17T09:21:45.795Z,8.25
2022-08-17T09:24:43.622Z,8.55
2022-08-17T09:27:22.097Z,8.68
2022-08-17T09:29:58.960Z,8.50
2022-08-17T09:32:42.647Z,8.27
2022-08-17T09:35:36.766Z,8.55
2022-08-17T09:38:42.757Z,7.65
2022-08-17T09:41:33.433Z,7.15
2022-08-17T09:44:23.686Z,8.25
2022-08-17T09:47:06.013Z,7.18
2022-08-17T09:49:40.489Z,7.88
2022-08-17T09:52:16.414Z,8.18
2022-08-17T09:54:46.169Z,8.30
2022-08-17T09:57:43.053Z,7.70
2022-08-17T10:00:18.868Z,7.93
2022-08-17T10:02:53.490Z,8.02
2022-08-17T10:05:39.698Z,7.47
2022-08-17T10:08:27.816Z,7.65
2022-08-17T10:10:56.670Z,8.50
2022-08-17T10:14:35.896Z,8.30
2022-08-17T10:17:11.258Z,8.05
2022-08-17T10:19:55.862Z,8.47
2022-08-17T10:22:57.079Z,8.55
2022-08-17T10:25:59.526Z,8.18
2022-08-17T10:28:36.470Z,7.60
2022-08-17T10:34:07.748Z,8.20
2022-08-17T10:36:37.956Z,7.80
2022-08-17T10:39:25.550Z,8.07
2022-08-17T10:41:57.914Z,6.85
2022-08-17T10:44:48.429Z,7.07
2022-08-17T10:47:18.114Z,6.63
2022-08-17T10:49:54.173Z,6.88
2022-08-17T10:52:21.829Z,7.05
2022-08-17T10:55:16.188Z,6.90
2022-08-17T10:57:45.545Z,6.75
2022-08-17T11:00:15.581Z,7.28
2022-08-17T11:02:49.895Z,7.53
2022-08-17T11:05:34.647Z,6.80
2022-08-17T11:08:13.099Z,6.73
2022-08-17T11:11:16.797Z,6.07
2022-08-17T11:14:08.858Z,6.22
2022-08-17T11:16:53.478Z,8.07
2022-08-17T11:19:32.156Z,7.05
2022-08-17T11:22:13.913Z,7.30
2022-08-17T11:24:47.943Z,7.32
2022-08-17T11:27:26.626Z,7.27
2022-08-17T11:30:01.772Z,7.15
2022-08-17T11:32:38.186Z,7.25
2022-08-17T11:35:20.493Z,7.05
2022-08-17T11:38:16.327Z,7.22
2022-08-17T11:41:01.484Z,6.57
2022-08-17T11:44:02.016Z,6.53
2022-08-17T11:47:28.186Z,6.45
2022-08-17T11:50:42.730Z,6.40
2022-08-17T11:54:03.575Z,6.63
2022-08-17T11:56:50.808Z,6.15
2022-08-17T11:59:45.975Z,6.53
2022-08-17T12:02:34.992Z,6.72
2022-08-17T12:05:09.766Z,6.97
2022-08-17T12:08:04.625Z,7.03
2022-08-17T12:10:35.470Z,7.05
2022-08-17T12:13:10.362Z,6.75
2022-08-17T12:18:07.929Z,7.78
2022-08-17T12:20:42.686Z,8.32
2022-08-17T12:23:15.245Z,7.78
2022-08-17T12:26:08.262Z,7.22
2022-08-17T12:28:38.780Z,7.32
2022-08-17T12:31:20.573Z,7.63
2022-08-17T12:33:48.109Z,7.40
2022-08-17T12:36:18.890Z,8.10
2022-08-17T12:38:53.918Z,7.30
2022-08-17T12:41:34.251Z,7.95
2022-08-17T12:44:05.796Z,7.00
2022-08-17T12:46:45.613Z,6.65
2022-08-17T12:49:28.967Z,6.90
2022-08-17T12:52:07.150Z,6.90
2022-08-17T12:55:01.864Z,6.38
2022-08-17T12:57:33.702Z,6.63
2022-08-17T13:00:22.054Z,6.40
2022-08-17T13:02:52.658Z,6.30
2022-08-17T13:05:28.327Z,7.30
2022-08-17T13:07:57.177Z,6.38
2022-08-17T13:10:33.101Z,7.15
2022-08-17T13:13:06.049Z,7.38
2022-08-17T13:15:44.490Z,6.43
2022-08-17T13:18:36.488Z,7.00
2022-08-17T13:21:03.197Z,7.40
2022-08-17T13:23:32.362Z,7.38
2022-08-17T13:26:07.084Z,7.15
2022-08-17T13:28:36.640Z,7.35
2022-08-17T13:31:41.406Z,7.72
2022-08-17T13:34:33.533Z,8.23
2022-08-17T13:37:26.877Z,7.15
2022-08-17T13:40:13.863Z,7.50
2022-08-17T13:42:51.680Z,7.22
2022-08-17T13:45:35.390Z,7.20
2022-08-17T13:48:06.378Z,7.28
2022-08-17T13:50:33.311Z,7.47
2022-08-17T13:52:59.953Z,7.25
2022-08-17T13:55:29.073Z,6.95
2022-08-17T13:58:03.928Z,6.90
2022-08-17T14:00:36.461Z,7.78
2022-08-17T14:03:05.317Z,8.73
2022-08-17T14:05:32.503Z,8.90
2022-08-17T14:08:02.053Z,10.65
2022-08-17T14:10:36.196Z,9.40
2022-08-17T14:13:03.442Z,7.10
2022-08-17T14:15:56.154Z,7.15
2022-08-17T14:18:55.237Z,5.50
2022-08-17T14:21:08.486Z,5.85
2022-08-17T14:23:36.602Z,6.25
2022-08-17T14:26:03.197Z,5.20
2022-08-17T14:28:29.761Z,5.53
2022-08-17T14:30:56.364Z,3.95
2022-08-17T14:33:24.695Z,3.90
2022-08-17T14:35:55.905Z,4.40
2022-08-17T14:38:22.523Z,4.82
2022-08-17T14:40:49.410Z,4.80
2022-08-17T14:43:15.998Z,5.40
2022-08-17T14:45:43.524Z,5.10
2022-08-17T14:48:10.965Z,4.70
2022-08-17T14:50:40.968Z,5.60
2022-08-17T14:53:10.931Z,5.82
2022-08-17T14:55:40.724Z,6.70
2022-08-17T14:58:08.981Z,6.88
2022-08-17T15:00:36.534Z,7.70
2022-08-17T15:03:03.692Z,7.80
2022-08-17T15:05:33.725Z,8.05
2022-08-17T15:08:01.897Z,8.45
2022-08-17T15:10:29.835Z,8.63
2022-08-17T15:12:57.408Z,9.75
2022-08-17T15:15:24.364Z,9.15
2022-08-17T15:17:51.677Z,10.20
2022-08-17T15:20:24.923Z,10.48
2022-08-17T15:23:00.818Z,10.93
2022-08-17T15:25:30.180Z,12.10
2022-08-17T15:27:56.959Z,10.95
2022-08-17T15:30:24.690Z,12.38
2022-08-17T15:32:55.309Z,12.50
2022-08-17T15:35:27.338Z,13.18
2022-08-17T15:38:09.822Z,15.02
2022-08-17T15:40:39.242Z,15.45
2022-08-17T15:43:12.760Z,15.48
2022-08-17T15:45:40.173Z,16.83
2022-08-17T15:48:07.154Z,14.57
2022-08-17T15:50:33.771Z,11.38
2022-08-17T15:53:02.091Z,9.02
2022-08-17T15:55:30.854Z,9.40
2022-08-17T15:57:57.597Z,8.20
2022-08-17T16:00:24.266Z,7.75
2022-08-17T16:03:13.848Z,8.68
2022-08-17T16:05:37.700Z,8.75
2022-08-17T16:08:07.179Z,7.90
2022-08-17T16:10:35.040Z,8.40
2022-08-17T16:13:04.140Z,8.82
2022-08-17T16:15:31.734Z,7.72
2022-08-17T16:17:58.485Z,7.50
2022-08-17T16:20:25.084Z,7.97
2022-08-17T16:22:51.905Z,7.13
2022-08-17T16:25:21.997Z,8.00
2022-08-17T16:27:53.508Z,8.35
2022-08-17T16:30:23.706Z,8.35
2022-08-17T16:32:52.010Z,9.15
2022-08-17T16:35:21.290Z,9.00
2022-08-17T16:37:48.292Z,9.00
2022-08-17T16:40:17.114Z,9.25
2022-08-17T16:42:45.936Z,10.38
2022-08-17T16:45:16.957Z,11.43
2022-08-17T16:47:43.712Z,12.43
2022-08-17T16:50:13.472Z,11.80
2022-08-17T16:52:41.301Z,11.20
2022-08-17T16:55:13.160Z,12.57
2022-08-17T16:57:49.976Z,12.55
2022-08-17T17:00:19.482Z,12.57
2022-08-17T17:02:49.563Z,12.88
2022-08-17T17:05:48.451Z,14.07
2022-08-17T17:08:30.418Z,14.95
2022-08-17T17:10:59.556Z,15.15
2022-08-17T17:13:34.960Z,14.27
2022-08-17T17:16:26.504Z,15.50
2022-08-17T17:19:27.745Z,16.23
2022-08-17T17:22:24.506Z,15.23
2022-08-17T17:25:00.523Z,16.67
2022-08-17T17:27:30.280Z,16.92
2022-08-17T17:30:09.484Z,16.25
2022-08-17T17:33:10.916Z,16.73
2022-08-17T17:35:55.558Z,16.00
2022-08-17T17:38:39.306Z,16.23
2022-08-17T17:41:12.336Z,16.23
2022-08-17T17:43:41.045Z,16.80
2022-08-17T17:46:39.779Z,16.58
2022-08-17T17:49:06.594Z,16.45
2022-08-17T17:52:06.888Z,14.65
2022-08-17T17:54:38.293Z,15.63
2022-08-17T17:57:21.414Z,16.40
2022-08-17T18:00:07.194Z,16.17
2022-08-17T18:02:51.238Z,14.52
2022-08-17T18:05:39.040Z,15.20
2022-08-17T18:08:32.207Z,14.38
2022-08-17T18:11:25.138Z,16.05
2022-08-17T18:14:14.421Z,15.23
2022-08-17T18:16:42.967Z,15.55
2022-08-17T18:19:15.242Z,17.23
2022-08-17T18:21:46.963Z,15.50
2022-08-17T18:24:13.804Z,15.43
2022-08-17T18:26:44.964Z,16.02
2022-08-17T18:29:42.723Z,16.35
2022-08-17T18:32:22.210Z,16.90
2022-08-17T18:35:09.093Z,14.85
2022-08-17T18:37:35.686Z,14.82
2022-08-17T18:40:36.173Z,15.00
2022-08-17T18:43:11.721Z,14.52
2022-08-17T18:45:50.186Z,14.25
2022-08-17T18:48:30.567Z,15.18
2022-08-17T18:51:21.041Z,13.70
2022-08-17T18:54:05.262Z,14.35
2022-08-17T18:56:34.836Z,14.57
2022-08-17T18:59:27.029Z,14.10
2022-08-17T19:01:58.197Z,15.45
2022-08-17T19:05:05.067Z,15.55
2022-08-17T19:07:40.937Z,16.17
2022-08-17T19:10:28.781Z,17.17
2022-08-17T19:13:12.375Z,15.23
2022-08-17T19:16:13.864Z,17.63
2022-08-17T19:18:59.971Z,17.98
2022-08-17T19:21:44.623Z,18.30
2022-08-17T19:24:19.621Z,17.70
2022-08-17T19:32:12.448Z,19.00
2022-08-17T19:34:40.599Z,20.92
2022-08-17T19:37:29.851Z,21.63
2022-08-17T19:40:02.368Z,20.52
2022-08-17T19:43:06.604Z,21.73
2022-08-17T19:45:51.510Z,19.90
2022-08-17T19:48:35.659Z,20.77
2022-08-17T19:51:15.630Z,20.95
2022-08-17T19:54:07.957Z,20.70
2022-08-17T19:56:54.491Z,19.85
2022-08-17T19:59:48.628Z,19.90
2022-08-17T20:02:30.347Z,19.45
2022-08-17T20:05:02.014Z,18.45
2022-08-17T20:08:03.444Z,19.20
2022-08-17T20:10:54.876Z,19.90
2022-08-17T20:13:33.998Z,21.02
2022-08-17T20:16:01.647Z,20.17
2022-08-17T20:18:33.801Z,19.95
2022-08-17T20:21:20.076Z,19.92
2022-08-17T20:24:13.103Z,19.83
2022-08-17T20:26:59.677Z,19.88
2022-08-17T20:29:40.415Z,19.77
2022-08-17T20:32:21.199Z,21.23
2022-08-17T20:34:47.928Z,21.38
2022-08-17T20:37:14.529Z,21.25
2022-08-17T20:39:42.785Z,20.75
2022-08-17T20:42:22.066Z,20.10
2022-08-17T20:44:52.554Z,20.95
2022-08-17T20:47:27.020Z,20.83
2022-08-17T20:50:25.453Z,21.48
2022-08-17T20:52:55.482Z,20.98
2022-08-17T20:55:35.281Z,19.58
2022-08-17T20:58:23.059Z,20.33
2022-08-17T21:00:59.054Z,20.50
2022-08-17T21:03:28.383Z,20.27
2022-08-17T21:06:18.008Z,19.55
2022-08-17T21:09:12.700Z,20.08
2022-08-17T21:12:03.994Z,19.38
2022-08-17T21:14:59.778Z,20.75
2022-08-17T21:17:50.138Z,20.00
2022-08-17T21:20:39.559Z,18.88
2022-08-17T21:23:43.298Z,19.92
2022-08-17T21:26:23.672Z,20.02
2022-08-17T21:29:29.975Z,19.65
2022-08-17T21:32:03.342Z,19.90
2022-08-17T21:34:32.997Z,19.35
2022-08-17T21:37:23.475Z,19.85
2022-08-17T21:40:18.144Z,19.50
2022-08-17T21:42:50.249Z,22.40
2022-08-17T21:45:38.876Z,22.13
2022-08-17T21:48:24.111Z,22.40
2022-08-17T21:51:21.762Z,22.42
2022-08-17T21:53:51.269Z,22.23
2022-08-17T21:56:33.669Z,21.95
2022-08-17T21:59:27.294Z,24.50
2022-08-17T22:01:59.697Z,24.80
2022-08-17T22:04:32.026Z,24.88
2022-08-17T22:07:01.678Z,24.95
2022-08-17T22:09:41.397Z,26.15
2022-08-17T22:12:20.232Z,24.20
2022-08-17T22:14:55.697Z,25.00
2022-08-17T22:17:35.554Z,24.23
2022-08-17T22:20:14.471Z,24.08
2022-08-17T22:23:08.865Z,24.45
2022-08-17T22:25:41.367Z,23.08
2022-08-17T22:28:12.335Z,23.80
2022-08-17T22:30:58.300Z,24.95
2022-08-17T22:33:49.232Z,24.25
2022-08-17T22:36:25.896Z,24.27
2022-08-17T22:39:05.575Z,23.52
2022-08-17T22:41:54.358Z,23.98
2022-08-17T22:44:37.727Z,23.45
2022-08-17T22:47:19.166Z,24.45
2022-08-17T22:49:54.714Z,24.13
2022-08-17T22:52:32.177Z,25.70
2022-08-17T22:55:33.637Z,24.58
2022-08-17T22:58:19.821Z,23.70
2022-08-17T23:00:49.416Z,24.45
2022-08-17T23:03:18.964Z,23.63
2022-08-17T23:06:11.135Z,24.52
2022-08-17T23:09:05.183Z,25.00
2022-08-17T23:11:58.565Z,25.00
2022-08-17T23:14:31.664Z,26.15
2022-08-17T23:17:02.182Z,25.75
2022-08-17T23:19:31.391Z,25.13
2022-08-17T23:21:59.350Z,25.08
2022-08-17T23:24:28.971Z,25.05
2022-08-17T23:26:59.305Z,26.08
2022-08-17T23:29:29.376Z,25.73
2022-08-17T23:31:59.692Z,25.83
2022-08-17T23:34:28.053Z,27.20
2022-08-17T23:36:56.147Z,26.13
2022-08-17T23:39:27.385Z,26.98
2022-08-17T23:41:57.980Z,27.48
2022-08-17T23:44:25.289Z,27.55
2022-08-17T23:46:52.832Z,27.38
2022-08-17T23:49:19.785Z,29.00
2022-08-17T23:51:48.652Z,28.20
2022-08-17T23:54:20.852Z,28.15
2022-08-17T23:56:47.516Z,29.10
2022-08-17T23:59:16.469Z,28.65
